LFMK 181530Z AUTO 27018KT 9999 FEW038 BKN100 BKN230 25/15 Q1015 NOSIG

ElémentsDécodage
LFMK Station météo située sur l'aérodrome de CARCASSONNE Salvaza
181530Z émis le 18 du mois à 15h30 UTC
AUTO Bulletin édité par un automate
27018KT vent du 270°, 18 noeuds
9999 visibilité horizontale supérieure à 10 Km
FEW038 nuages rares (1/8 à 2/8) à 3800 pieds
BKN100 nuages morcelés (5/8 à 7/8) à 10000 pieds
BKN230 nuages morcelés (5/8 à 7/8) à 23000 pieds
25/15 température 25°C, point de rosée 15°C
 soit une humidité relative de 54%
Q1015 la pression au niveau de la mer (QNH) est de 1015 hPa
NOSIG Pas de changement significatif prévu au cours des deux heures suivant l'heure de l'observation